createdAt,value
2022-11-27T00:00:20.915Z,9.23
2022-11-27T00:02:53.732Z,9.00
2022-11-27T00:05:27.146Z,9.53
2022-11-27T00:08:00.442Z,7.87
2022-11-27T00:10:33.677Z,9.63
2022-11-27T00:13:07.219Z,7.90
2022-11-27T00:15:40.787Z,8.10
2022-11-27T00:18:14.279Z,7.20
2022-11-27T00:20:47.811Z,8.38
2022-11-27T00:23:21.159Z,7.65
2022-11-27T00:25:54.758Z,7.28
2022-11-27T00:28:28.193Z,7.92
2022-11-27T00:31:02.625Z,8.00
2022-11-27T00:33:37.643Z,7.30
2022-11-27T00:36:13.234Z,7.75
2022-11-27T00:38:46.604Z,8.80
2022-11-27T00:41:22.874Z,8.80
2022-11-27T00:43:57.029Z,8.93
2022-11-27T00:46:33.083Z,7.50
2022-11-27T00:49:07.820Z,7.87
2022-11-27T00:51:41.638Z,8.30
2022-11-27T00:54:15.253Z,7.65
2022-11-27T00:56:48.557Z,9.13
2022-11-27T00:59:21.911Z,6.47
2022-11-27T01:01:55.203Z,8.10
2022-11-27T01:04:28.600Z,7.40
2022-11-27T01:07:02.128Z,9.05
2022-11-27T01:09:35.482Z,7.55
2022-11-27T01:12:10.041Z,8.48
2022-11-27T01:14:43.364Z,6.90
2022-11-27T01:17:16.793Z,7.87
2022-11-27T01:19:50.293Z,7.50
2022-11-27T01:22:24.056Z,7.17
2022-11-27T01:24:57.188Z,8.35
2022-11-27T01:27:30.614Z,7.65
2022-11-27T01:30:04.221Z,9.15
2022-11-27T01:32:37.868Z,6.60
2022-11-27T01:35:12.548Z,7.37
2022-11-27T01:37:45.733Z,7.00
2022-11-27T01:40:19.341Z,8.10
2022-11-27T01:42:52.656Z,7.28
2022-11-27T01:45:26.814Z,8.28
2022-11-27T01:48:03.048Z,6.72
2022-11-27T01:50:39.147Z,8.48
2022-11-27T01:53:15.880Z,6.47
2022-11-27T01:55:51.949Z,7.12
2022-11-27T01:58:28.344Z,7.67
2022-11-27T02:01:02.140Z,7.45
2022-11-27T02:03:35.820Z,7.35
2022-11-27T02:06:12.907Z,7.35
2022-11-27T02:08:46.655Z,7.75
2022-11-27T02:11:22.888Z,6.62
2022-11-27T02:13:59.182Z,6.70
2022-11-27T02:16:35.337Z,7.58
2022-11-27T02:19:11.319Z,7.45
2022-11-27T02:21:48.602Z,7.42
2022-11-27T02:28:19.205Z,7.30
2022-11-27T02:30:55.974Z,7.83
2022-11-27T02:33:30.878Z,7.03
2022-11-27T02:36:07.457Z,7.20
2022-11-27T02:38:44.049Z,7.50
2022-11-27T02:41:20.533Z,7.50
2022-11-27T02:43:56.862Z,6.95
2022-11-27T02:46:30.829Z,6.72
2022-11-27T02:49:08.201Z,7.40
2022-11-27T02:51:45.169Z,7.22
2022-11-27T02:54:21.671Z,7.33
2022-11-27T02:56:57.958Z,7.10
2022-11-27T02:59:33.354Z,6.80
2022-11-27T03:02:09.784Z,6.12
2022-11-27T03:04:46.320Z,7.20
2022-11-27T03:07:23.313Z,6.53
2022-11-27T03:09:59.511Z,5.72
2022-11-27T03:12:34.522Z,5.47
2022-11-27T03:15:10.370Z,6.20
2022-11-27T03:17:52.928Z,8.55
2022-11-27T03:20:30.153Z,6.03
2022-11-27T03:23:03.688Z,6.80
2022-11-27T03:25:37.151Z,6.00
2022-11-27T03:28:12.458Z,7.15
2022-11-27T03:30:45.781Z,6.78
2022-11-27T03:33:19.853Z,6.42
2022-11-27T03:35:54.327Z,6.70
2022-11-27T03:38:27.671Z,6.97
2022-11-27T03:41:04.003Z,5.50
2022-11-27T03:43:40.242Z,6.90
2022-11-27T03:46:16.649Z,7.17
2022-11-27T03:48:52.752Z,6.50
2022-11-27T03:51:28.946Z,6.72
2022-11-27T03:54:05.087Z,6.40
2022-11-27T03:56:42.165Z,7.47
2022-11-27T03:59:19.990Z,7.12
2022-11-27T04:01:53.638Z,6.65
2022-11-27T04:04:27.189Z,6.08
2022-11-27T04:07:00.556Z,5.75
2022-11-27T04:09:33.836Z,5.72
2022-11-27T04:12:08.027Z,6.45
2022-11-27T04:14:41.639Z,6.55
2022-11-27T04:17:15.225Z,6.95
2022-11-27T04:19:48.792Z,6.25
2022-11-27T04:22:22.178Z,5.90
2022-11-27T04:24:56.043Z,6.83
2022-11-27T04:27:29.288Z,6.62
2022-11-27T04:30:02.768Z,6.15
2022-11-27T04:32:36.306Z,7.15
2022-11-27T04:35:11.106Z,6.08
2022-11-27T04:37:44.467Z,6.00
2022-11-27T04:40:18.524Z,6.65
2022-11-27T04:42:51.957Z,6.15
2022-11-27T04:45:25.123Z,6.95
2022-11-27T04:47:58.440Z,5.78
2022-11-27T04:50:32.197Z,7.30
2022-11-27T04:53:05.573Z,7.03
2022-11-27T04:55:39.176Z,6.28
2022-11-27T04:58:12.571Z,5.95
2022-11-27T05:00:46.069Z,7.17
2022-11-27T05:03:19.806Z,6.15
2022-11-27T05:05:58.591Z,5.78
2022-11-27T05:08:33.884Z,6.55
2022-11-27T05:11:08.887Z,6.00
2022-11-27T05:13:42.512Z,6.28
2022-11-27T05:16:15.713Z,7.08
2022-11-27T05:18:49.375Z,5.33
2022-11-27T05:21:22.982Z,6.33
2022-11-27T05:23:56.300Z,6.12
2022-11-27T05:26:29.729Z,6.67
2022-11-27T05:29:03.593Z,5.80
2022-11-27T05:31:38.007Z,6.10
2022-11-27T05:34:12.262Z,5.75
2022-11-27T05:36:46.069Z,5.42
2022-11-27T05:39:19.795Z,6.25
2022-11-27T05:41:53.266Z,4.92
2022-11-27T05:44:28.339Z,6.97
2022-11-27T05:47:01.949Z,6.15
2022-11-27T05:49:35.393Z,4.12
2022-11-27T05:52:08.622Z,5.70
2022-11-27T05:54:42.505Z,6.20
2022-11-27T05:57:15.950Z,6.45
2022-11-27T05:59:49.361Z,5.90
2022-11-27T06:02:27.970Z,6.62
2022-11-27T06:04:58.027Z,6.92
2022-11-27T06:07:32.196Z,7.00
2022-11-27T06:10:05.968Z,6.97
2022-11-27T06:12:39.477Z,7.00
2022-11-27T06:15:13.357Z,7.50
2022-11-27T06:17:47.124Z,6.53
2022-11-27T06:20:21.419Z,4.45
2022-11-27T06:22:54.768Z,6.78
2022-11-27T06:25:28.515Z,7.70
2022-11-27T06:28:01.927Z,6.78
2022-11-27T06:30:35.199Z,6.67
2022-11-27T06:33:08.448Z,6.92
2022-11-27T06:35:41.711Z,6.12
2022-11-27T06:38:14.998Z,6.03
2022-11-27T06:40:48.427Z,7.65
2022-11-27T06:43:22.123Z,7.03
2022-11-27T06:45:59.895Z,6.60
2022-11-27T06:51:06.055Z,6.25
2022-11-27T06:53:40.583Z,6.50
2022-11-27T06:56:15.379Z,7.85
2022-11-27T06:58:50.458Z,7.05
2022-11-27T07:01:24.936Z,7.03
2022-11-27T07:03:59.395Z,8.20
2022-11-27T07:06:32.674Z,7.17
2022-11-27T07:09:07.748Z,7.40
2022-11-27T07:11:41.774Z,6.10
2022-11-27T07:14:15.660Z,7.25
2022-11-27T07:16:49.362Z,6.75
2022-11-27T07:19:22.588Z,6.80
2022-11-27T07:21:56.155Z,6.78
2022-11-27T07:24:29.607Z,6.72
2022-11-27T07:27:03.224Z,6.47
2022-11-27T07:29:36.920Z,7.12
2022-11-27T07:32:10.409Z,6.65
2022-11-27T07:34:44.023Z,6.65
2022-11-27T07:37:17.565Z,8.05
2022-11-27T07:40:05.502Z,7.03
2022-11-27T07:42:41.671Z,6.53
2022-11-27T07:45:01.651Z,6.45
2022-11-27T07:47:35.026Z,7.70
2022-11-27T07:50:11.279Z,6.47
2022-11-27T07:52:44.989Z,7.20
2022-11-27T07:55:18.478Z,8.35
2022-11-27T07:57:52.440Z,7.10
2022-11-27T08:00:26.546Z,7.17
2022-11-27T08:03:01.036Z,6.58
2022-11-27T08:05:36.460Z,6.90
2022-11-27T08:08:09.868Z,6.72
2022-11-27T08:10:43.771Z,6.37
2022-11-27T08:13:17.000Z,6.78
2022-11-27T08:15:50.309Z,7.10
2022-11-27T08:18:23.625Z,6.12
2022-11-27T08:20:56.921Z,6.37
2022-11-27T08:23:30.443Z,6.65
2022-11-27T08:26:07.549Z,6.67
2022-11-27T08:28:41.937Z,6.22
2022-11-27T08:31:16.329Z,6.67
2022-11-27T08:33:50.200Z,6.95
2022-11-27T08:36:26.695Z,7.40
2022-11-27T08:39:00.200Z,7.53
2022-11-27T08:41:33.480Z,6.78
2022-11-27T08:44:09.357Z,6.78
2022-11-27T08:46:41.754Z,6.55
2022-11-27T08:49:15.310Z,6.92
2022-11-27T08:51:48.859Z,7.30
2022-11-27T08:54:22.518Z,6.80
2022-11-27T08:56:55.700Z,6.00
2022-11-27T08:59:29.092Z,6.67
2022-11-27T09:02:02.787Z,6.05
2022-11-27T09:04:36.199Z,7.58
2022-11-27T09:07:11.121Z,6.10
2022-11-27T09:09:44.864Z,6.50
2022-11-27T09:12:18.011Z,7.80
2022-11-27T09:14:51.354Z,7.45
2022-11-27T09:17:24.657Z,6.62
2022-11-27T09:19:58.230Z,6.33
2022-11-27T09:22:31.917Z,7.42
2022-11-27T09:25:05.904Z,7.42
2022-11-27T09:27:40.007Z,6.92
2022-11-27T09:30:15.955Z,7.42
2022-11-27T09:32:49.536Z,6.58
2022-11-27T09:35:23.134Z,5.85
2022-11-27T09:37:56.588Z,5.75
2022-11-27T09:40:29.895Z,4.25
2022-11-27T09:43:06.447Z,6.97
2022-11-27T09:45:45.261Z,6.72
2022-11-27T09:48:21.528Z,6.03
2022-11-27T09:50:57.721Z,6.20
2022-11-27T09:53:34.037Z,6.12
2022-11-27T09:56:10.239Z,6.17
2022-11-27T09:58:46.714Z,6.65
2022-11-27T10:01:25.150Z,6.35
2022-11-27T10:03:57.558Z,5.83
2022-11-27T10:06:33.798Z,5.97
2022-11-27T10:09:14.601Z,5.90
2022-11-27T10:11:51.809Z,5.60
2022-11-27T10:14:32.969Z,7.12
2022-11-27T10:17:09.589Z,6.15
2022-11-27T10:19:47.349Z,6.65
2022-11-27T10:22:24.616Z,5.60
2022-11-27T10:25:04.152Z,6.97
2022-11-27T10:27:39.700Z,6.10
2022-11-27T10:30:18.014Z,6.40
2022-11-27T10:32:55.482Z,6.05
2022-11-27T10:35:31.831Z,6.17
2022-11-27T10:38:08.076Z,5.97
2022-11-27T10:40:44.388Z,6.62
2022-11-27T10:43:20.333Z,6.85
2022-11-27T10:45:55.842Z,7.22
2022-11-27T10:48:29.864Z,4.80
2022-11-27T10:51:03.387Z,8.00
2022-11-27T10:53:38.556Z,7.35
2022-11-27T10:56:51.601Z,7.47
2022-11-27T10:59:33.025Z,8.13
2022-11-27T11:02:05.094Z,7.55
2022-11-27T11:04:48.449Z,7.62
2022-11-27T11:07:27.002Z,7.22
2022-11-27T11:10:01.503Z,8.63
2022-11-27T11:12:34.749Z,8.10
2022-11-27T11:15:15.492Z,7.58
2022-11-27T11:17:48.800Z,7.37
2022-11-27T11:20:23.881Z,6.70
2022-11-27T11:22:56.903Z,6.65
2022-11-27T11:25:30.670Z,7.85
2022-11-27T11:28:04.389Z,6.42
2022-11-27T11:30:39.710Z,6.00
2022-11-27T11:33:15.475Z,6.55
2022-11-27T11:35:54.003Z,7.15
2022-11-27T11:38:32.546Z,7.85
2022-11-27T11:41:09.755Z,7.15
2022-11-27T11:43:43.609Z,6.30
2022-11-27T11:46:23.558Z,8.25
2022-11-27T11:49:00.197Z,7.10
2022-11-27T11:51:57.407Z,7.55
2022-11-27T11:54:44.019Z,7.35
2022-11-27T11:57:27.476Z,7.03
2022-11-27T12:00:04.190Z,5.35
2022-11-27T12:02:47.003Z,6.70
2022-11-27T12:05:28.636Z,6.55
2022-11-27T12:08:33.217Z,6.83
2022-11-27T12:11:12.055Z,7.42
2022-11-27T12:14:05.000Z,7.28
2022-11-27T12:16:43.644Z,6.87
2022-11-27T12:19:35.049Z,6.92
2022-11-27T12:22:12.691Z,7.60
2022-11-27T12:24:50.247Z,6.90
2022-11-27T12:27:29.221Z,7.15
2022-11-27T12:30:14.578Z,6.97
2022-11-27T12:36:02.281Z,6.33
2022-11-27T12:38:43.518Z,6.97
2022-11-27T12:41:36.080Z,7.75
2022-11-27T12:44:14.945Z,6.87
2022-11-27T12:46:52.404Z,7.28
2022-11-27T12:49:28.818Z,7.50
2022-11-27T12:52:05.564Z,6.75
2022-11-27T12:54:42.410Z,7.30
2022-11-27T12:57:19.977Z,6.90
2022-11-27T12:59:56.221Z,7.55
2022-11-27T13:02:35.675Z,7.50
2022-11-27T13:05:12.083Z,7.40
2022-11-27T13:07:48.509Z,6.83
2022-11-27T13:10:26.473Z,7.35
2022-11-27T13:13:05.076Z,8.03
2022-11-27T13:15:41.749Z,7.53
2022-11-27T13:18:20.185Z,9.20
2022-11-27T13:20:54.688Z,5.90
2022-11-27T13:23:29.368Z,9.50
2022-11-27T13:26:05.727Z,8.20
2022-11-27T13:28:43.270Z,7.85
2022-11-27T13:31:20.177Z,8.30
2022-11-27T13:33:55.080Z,8.20
2022-11-27T13:36:35.753Z,10.82
2022-11-27T13:39:05.632Z,8.90
2022-11-27T13:41:41.745Z,8.43
2022-11-27T13:44:27.105Z,8.78
2022-11-27T13:47:03.362Z,9.13
2022-11-27T13:49:38.956Z,8.33
2022-11-27T13:52:16.030Z,9.50
2022-11-27T13:54:56.754Z,9.65
2022-11-27T13:57:31.663Z,7.78
2022-11-27T14:00:08.764Z,8.85
2022-11-27T14:02:50.159Z,8.40
2022-11-27T14:05:26.279Z,8.20
2022-11-27T14:08:00.792Z,8.65
2022-11-27T14:10:35.685Z,9.13
2022-11-27T14:13:11.337Z,8.73
2022-11-27T14:15:44.913Z,9.35
2022-11-27T14:18:21.268Z,7.97
2022-11-27T14:20:56.890Z,10.45
2022-11-27T14:23:32.512Z,7.97
2022-11-27T14:26:13.397Z,8.55
2022-11-27T14:28:44.835Z,9.28
2022-11-27T14:31:31.200Z,8.45
2022-11-27T14:34:16.054Z,10.40
2022-11-27T14:36:40.583Z,8.65
2022-11-27T14:39:23.789Z,9.33
2022-11-27T14:42:02.032Z,8.98
2022-11-27T14:44:36.088Z,9.25
2022-11-27T14:47:11.283Z,8.85
2022-11-27T14:49:44.816Z,8.13
2022-11-27T14:52:19.134Z,9.15
2022-11-27T14:54:53.602Z,9.93
2022-11-27T14:57:29.044Z,8.60
2022-11-27T15:00:13.731Z,8.58
2022-11-27T15:02:47.896Z,9.78
2022-11-27T15:05:25.098Z,9.33
2022-11-27T15:08:01.794Z,11.35
2022-11-27T15:10:38.927Z,9.28
2022-11-27T15:13:22.807Z,10.95
2022-11-27T15:16:01.538Z,9.43
2022-11-27T15:18:38.956Z,10.00
2022-11-27T15:21:19.442Z,9.35
2022-11-27T15:23:54.076Z,9.90
2022-11-27T15:26:35.679Z,10.30
2022-11-27T15:29:31.854Z,8.48
2022-11-27T15:32:07.716Z,9.33
2022-11-27T15:34:41.918Z,8.68
2022-11-27T15:37:23.539Z,8.70
2022-11-27T15:39:57.831Z,10.38
2022-11-27T15:42:31.923Z,8.20
2022-11-27T15:45:08.197Z,7.55
2022-11-27T15:47:45.353Z,8.70
2022-11-27T15:50:19.460Z,9.18
2022-11-27T15:52:53.056Z,8.48
2022-11-27T15:55:26.717Z,10.23
2022-11-27T15:58:00.514Z,10.28
2022-11-27T16:00:35.446Z,8.20
2022-11-27T16:03:09.861Z,8.03
2022-11-27T16:05:43.523Z,8.43
2022-11-27T16:08:17.431Z,8.25
2022-11-27T16:10:51.307Z,7.75
2022-11-27T16:13:24.807Z,8.03
2022-11-27T16:15:59.744Z,9.70
2022-11-27T16:18:36.925Z,8.63
2022-11-27T16:21:12.389Z,8.30
2022-11-27T16:23:46.516Z,7.62
2022-11-27T16:26:28.887Z,9.30
2022-11-27T16:29:23.011Z,7.53
2022-11-27T16:34:38.067Z,8.03
2022-11-27T16:37:18.414Z,9.43
2022-11-27T16:39:53.488Z,8.78
2022-11-27T16:42:33.121Z,9.05
2022-11-27T16:45:08.229Z,8.93
2022-11-27T16:47:46.254Z,8.58
2022-11-27T16:50:20.117Z,7.75
2022-11-27T16:52:55.641Z,8.80
2022-11-27T16:55:31.696Z,9.28
2022-11-27T16:58:05.075Z,8.58
2022-11-27T17:00:38.842Z,9.95
2022-11-27T17:03:17.905Z,9.55
2022-11-27T17:05:51.769Z,8.33
2022-11-27T17:08:26.713Z,10.90
2022-11-27T17:11:09.753Z,8.95
2022-11-27T17:13:50.743Z,7.65
2022-11-27T17:16:28.699Z,9.55
2022-11-27T17:19:04.284Z,9.25
2022-11-27T17:21:38.305Z,9.95
2022-11-27T17:24:16.057Z,9.75
2022-11-27T17:26:54.023Z,10.00
2022-11-27T17:29:33.861Z,9.85
2022-11-27T17:32:10.089Z,10.30
2022-11-27T17:34:45.309Z,9.78
2022-11-27T17:37:20.032Z,9.20
2022-11-27T17:39:54.598Z,9.63
2022-11-27T17:42:28.413Z,10.38
2022-11-27T17:45:07.007Z,9.38
2022-11-27T17:47:40.481Z,11.03
2022-11-27T17:50:17.558Z,10.48
2022-11-27T17:52:54.905Z,10.93
2022-11-27T17:55:28.923Z,11.35
2022-11-27T17:58:04.965Z,9.73
2022-11-27T18:00:45.103Z,8.10
2022-11-27T18:03:20.949Z,9.80
2022-11-27T18:05:54.334Z,7.50
2022-11-27T18:08:28.091Z,11.10
2022-11-27T18:11:09.379Z,9.25
2022-11-27T18:13:43.511Z,9.13
2022-11-27T18:16:20.977Z,9.45
2022-11-27T18:18:54.418Z,9.33
2022-11-27T18:21:31.992Z,6.72
2022-11-27T18:24:23.382Z,12.78
2022-11-27T18:29:16.804Z,10.95
2022-11-27T18:31:55.068Z,10.00
2022-11-27T18:34:29.410Z,8.30
2022-11-27T18:37:03.481Z,8.38
2022-11-27T18:39:37.849Z,9.88
2022-11-27T18:42:11.295Z,8.15
2022-11-27T18:44:46.625Z,8.95
2022-11-27T18:47:20.451Z,11.43
2022-11-27T18:49:55.776Z,10.18
2022-11-27T18:52:30.988Z,8.03
2022-11-27T18:55:06.286Z,10.00
2022-11-27T18:57:39.777Z,9.13
2022-11-27T19:00:16.283Z,10.90
2022-11-27T19:02:51.656Z,11.30
2022-11-27T19:05:25.285Z,11.15
2022-11-27T19:08:01.330Z,11.28
2022-11-27T19:10:35.449Z,9.18
2022-11-27T19:13:08.982Z,9.08
2022-11-27T19:15:46.149Z,10.18
2022-11-27T19:18:20.877Z,9.25
2022-11-27T19:20:58.999Z,10.78
2022-11-27T19:26:10.679Z,10.78
2022-11-27T19:28:45.451Z,10.68
2022-11-27T19:31:19.243Z,11.40
2022-11-27T19:33:56.215Z,9.53
2022-11-27T19:36:31.565Z,13.20
2022-11-27T19:39:06.527Z,11.88
2022-11-27T19:41:40.022Z,8.43
2022-11-27T19:44:15.727Z,10.15
2022-11-27T19:46:49.571Z,10.88
2022-11-27T19:49:26.175Z,8.53
2022-11-27T19:52:00.095Z,9.55
2022-11-27T19:54:35.808Z,8.23
2022-11-27T19:57:09.501Z,9.00
2022-11-27T19:59:43.893Z,7.30
2022-11-27T20:02:17.979Z,9.58
2022-11-27T20:04:54.971Z,10.45
2022-11-27T20:07:28.520Z,8.25
2022-11-27T20:10:02.108Z,10.78
2022-11-27T20:12:38.437Z,11.45
2022-11-27T20:15:16.391Z,10.45
2022-11-27T20:17:49.928Z,9.58
2022-11-27T20:20:23.646Z,10.50
2022-11-27T20:22:58.062Z,10.00
2022-11-27T20:25:31.406Z,11.15
2022-11-27T20:28:05.258Z,10.32
2022-11-27T20:30:40.895Z,7.25
2022-11-27T20:33:16.265Z,10.05
2022-11-27T20:35:49.753Z,11.25
2022-11-27T20:38:23.756Z,10.03
2022-11-27T20:40:57.591Z,10.78
2022-11-27T20:43:31.133Z,10.85
2022-11-27T20:46:04.951Z,10.90
2022-11-27T20:48:38.818Z,11.30
2022-11-27T20:51:14.481Z,10.68
2022-11-27T20:53:49.731Z,8.23
2022-11-27T20:56:23.786Z,7.62
2022-11-27T20:58:57.929Z,10.60
2022-11-27T21:01:33.700Z,9.63
2022-11-27T21:04:10.034Z,11.10
2022-11-27T21:06:44.406Z,8.43
2022-11-27T21:09:19.779Z,8.30
2022-11-27T21:11:54.201Z,8.55
2022-11-27T21:14:27.944Z,7.25
2022-11-27T21:17:05.109Z,9.78
2022-11-27T21:19:38.731Z,11.28
2022-11-27T21:22:12.424Z,7.83
2022-11-27T21:24:46.174Z,9.68
2022-11-27T21:27:19.735Z,7.25
2022-11-27T21:29:54.434Z,13.38
2022-11-27T21:32:29.057Z,9.03
2022-11-27T21:35:03.138Z,9.25
2022-11-27T21:37:36.368Z,9.20
2022-11-27T21:40:12.668Z,10.32
2022-11-27T21:42:46.136Z,9.90
2022-11-27T21:45:19.854Z,9.75
2022-11-27T21:47:53.314Z,10.38
2022-11-27T21:50:26.575Z,10.00
2022-11-27T21:53:00.634Z,8.93
2022-11-27T21:55:33.959Z,12.53
2022-11-27T21:58:07.482Z,8.95
2022-11-27T22:00:40.978Z,9.15
2022-11-27T22:03:14.564Z,8.08
2022-11-27T22:05:48.062Z,7.70
2022-11-27T22:08:21.603Z,11.48
2022-11-27T22:10:55.343Z,9.75
2022-11-27T22:13:30.062Z,12.55
2022-11-27T22:16:04.264Z,12.10
2022-11-27T22:18:37.982Z,10.43
2022-11-27T22:21:12.683Z,9.43
2022-11-27T22:23:46.890Z,9.58
2022-11-27T22:26:22.058Z,10.10
2022-11-27T22:28:57.318Z,7.97
2022-11-27T22:31:33.577Z,9.40
2022-11-27T22:34:07.003Z,11.50
2022-11-27T22:36:40.609Z,9.10
2022-11-27T22:39:14.029Z,9.95
2022-11-27T22:41:47.830Z,11.22
2022-11-27T22:44:23.087Z,9.73
2022-11-27T22:46:56.562Z,9.43
2022-11-27T22:49:29.976Z,8.18
2022-11-27T22:52:03.579Z,11.88
2022-11-27T22:54:37.272Z,9.55
2022-11-27T22:57:10.620Z,8.45
2022-11-27T22:59:43.989Z,9.98
2022-11-27T23:02:18.489Z,10.23
2022-11-27T23:04:51.946Z,11.63
2022-11-27T23:07:25.600Z,9.18
2022-11-27T23:09:58.945Z,10.65
2022-11-27T23:12:34.187Z,10.78
2022-11-27T23:15:09.224Z,8.50
2022-11-27T23:17:42.568Z,10.05
2022-11-27T23:20:16.576Z,8.83
2022-11-27T23:22:50.134Z,9.78
2022-11-27T23:25:23.641Z,9.88
2022-11-27T23:27:57.003Z,11.60
2022-11-27T23:30:30.122Z,11.15
2022-11-27T23:33:03.902Z,10.32
2022-11-27T23:35:37.508Z,12.25
2022-11-27T23:38:11.030Z,7.97
2022-11-27T23:40:44.527Z,13.88
2022-11-27T23:43:17.889Z,9.70
2022-11-27T23:45:51.316Z,11.90
2022-11-27T23:48:24.672Z,11.10
2022-11-27T23:50:58.031Z,10.45
2022-11-27T23:53:31.767Z,12.35
2022-11-27T23:56:05.810Z,11.20
2022-11-27T23:58:45.194Z,12.05
